sensor_id;sensor_type;location;lat;lon;timestamp;temperature;humidity
18047;DHT22;9148;51.454;13.862;2023-07-13T00:01:35;22.80;53.20
18047;DHT22;9148;51.454;13.862;2023-07-13T00:04:04;22.80;53.30
18047;DHT22;9148;51.454;13.862;2023-07-13T00:06:29;22.80;53.40
18047;DHT22;9148;51.454;13.862;2023-07-13T00:08:58;22.80;54.00
18047;DHT22;9148;51.454;13.862;2023-07-13T00:11:25;22.70;53.50
18047;DHT22;9148;51.454;13.862;2023-07-13T00:13:51;22.70;53.70
18047;DHT22;9148;51.454;13.862;2023-07-13T00:16:17;22.70;54.00
18047;DHT22;9148;51.454;13.862;2023-07-13T00:18:44;22.60;54.10
18047;DHT22;9148;51.454;13.862;2023-07-13T00:21:10;22.60;54.30
18047;DHT22;9148;51.454;13.862;2023-07-13T00:23:39;22.50;54.40
18047;DHT22;9148;51.454;13.862;2023-07-13T00:26:09;22.50;54.60
18047;DHT22;9148;51.454;13.862;2023-07-13T00:28:36;22.50;54.80
18047;DHT22;9148;51.454;13.862;2023-07-13T00:31:02;22.40;55.00
18047;DHT22;9148;51.454;13.862;2023-07-13T00:33:29;22.40;55.30
18047;DHT22;9148;51.454;13.862;2023-07-13T00:36:00;22.30;55.70
18047;DHT22;9148;51.454;13.862;2023-07-13T00:38:26;22.20;55.80
18047;DHT22;9148;51.454;13.862;2023-07-13T00:40:52;22.10;56.00
18047;DHT22;9148;51.454;13.862;2023-07-13T00:43:20;21.90;56.00
18047;DHT22;9148;51.454;13.862;2023-07-13T00:48:15;21.80;56.40
18047;DHT22;9148;51.454;13.862;2023-07-13T00:50:48;21.70;56.60
18047;DHT22;9148;51.454;13.862;2023-07-13T00:53:35;21.70;56.70
18047;DHT22;9148;51.454;13.862;2023-07-13T00:56:01;21.60;57.10
18047;DHT22;9148;51.454;13.862;2023-07-13T00:58:28;21.60;57.10
18047;DHT22;9148;51.454;13.862;2023-07-13T01:00:54;21.50;57.30
18047;DHT22;9148;51.454;13.862;2023-07-13T01:03:20;21.50;57.40
18047;DHT22;9148;51.454;13.862;2023-07-13T01:05:48;21.40;57.40
18047;DHT22;9148;51.454;13.862;2023-07-13T01:08:15;21.40;57.50
18047;DHT22;9148;51.454;13.862;2023-07-13T01:10:50;21.40;57.50
18047;DHT22;9148;51.454;13.862;2023-07-13T01:13:19;21.40;57.50
18047;DHT22;9148;51.454;13.862;2023-07-13T01:15:47;21.50;57.50
18047;DHT22;9148;51.454;13.862;2023-07-13T01:18:18;21.50;57.60
18047;DHT22;9148;51.454;13.862;2023-07-13T01:20:51;21.50;57.70
18047;DHT22;9148;51.454;13.862;2023-07-13T01:23:20;21.50;57.90
18047;DHT22;9148;51.454;13.862;2023-07-13T01:25:47;21.50;58.00
18047;DHT22;9148;51.454;13.862;2023-07-13T01:28:13;21.50;58.00
18047;DHT22;9148;51.454;13.862;2023-07-13T01:30:40;21.50;58.00
18047;DHT22;9148;51.454;13.862;2023-07-13T01:33:07;21.40;58.10
18047;DHT22;9148;51.454;13.862;2023-07-13T01:35:33;21.40;58.10
18047;DHT22;9148;51.454;13.862;2023-07-13T01:37:59;21.40;58.00
18047;DHT22;9148;51.454;13.862;2023-07-13T01:40:27;21.30;58.00
18047;DHT22;9148;51.454;13.862;2023-07-13T01:42:53;21.30;57.90
18047;DHT22;9148;51.454;13.862;2023-07-13T01:45:19;21.30;57.90
18047;DHT22;9148;51.454;13.862;2023-07-13T01:47:45;21.30;57.90
18047;DHT22;9148;51.454;13.862;2023-07-13T01:50:10;21.30;57.80
18047;DHT22;9148;51.454;13.862;2023-07-13T01:52:36;21.30;57.90
18047;DHT22;9148;51.454;13.862;2023-07-13T01:55:02;21.30;57.80
18047;DHT22;9148;51.454;13.862;2023-07-13T01:57:28;21.30;58.00
18047;DHT22;9148;51.454;13.862;2023-07-13T01:59:54;21.20;58.00
18047;DHT22;9148;51.454;13.862;2023-07-13T02:02:20;21.20;58.00
18047;DHT22;9148;51.454;13.862;2023-07-13T02:04:45;21.10;58.20
18047;DHT22;9148;51.454;13.862;2023-07-13T02:07:11;21.10;58.40
18047;DHT22;9148;51.454;13.862;2023-07-13T02:09:37;21.00;58.50
18047;DHT22;9148;51.454;13.862;2023-07-13T02:12:02;21.10;58.60
18047;DHT22;9148;51.454;13.862;2023-07-13T02:14:28;21.00;58.60
18047;DHT22;9148;51.454;13.862;2023-07-13T02:16:54;21.00;58.70
18047;DHT22;9148;51.454;13.862;2023-07-13T02:19:20;20.90;58.70
18047;DHT22;9148;51.454;13.862;2023-07-13T02:21:45;20.90;58.90
18047;DHT22;9148;51.454;13.862;2023-07-13T02:24:11;20.70;58.90
18047;DHT22;9148;51.454;13.862;2023-07-13T02:26:43;20.70;59.00
18047;DHT22;9148;51.454;13.862;2023-07-13T02:29:09;20.60;59.20
18047;DHT22;9148;51.454;13.862;2023-07-13T02:31:35;20.60;59.30
18047;DHT22;9148;51.454;13.862;2023-07-13T02:34:01;20.50;59.40
18047;DHT22;9148;51.454;13.862;2023-07-13T02:36:28;20.50;59.70
18047;DHT22;9148;51.454;13.862;2023-07-13T02:38:54;20.50;59.90
18047;DHT22;9148;51.454;13.862;2023-07-13T02:41:19;20.50;60.00
18047;DHT22;9148;51.454;13.862;2023-07-13T02:43:48;20.50;60.30
18047;DHT22;9148;51.454;13.862;2023-07-13T02:46:14;20.40;60.60
18047;DHT22;9148;51.454;13.862;2023-07-13T02:48:40;20.40;60.70
18047;DHT22;9148;51.454;13.862;2023-07-13T02:51:06;20.40;61.00
18047;DHT22;9148;51.454;13.862;2023-07-13T02:53:33;20.40;61.40
18047;DHT22;9148;51.454;13.862;2023-07-13T02:56:00;20.40;61.50
18047;DHT22;9148;51.454;13.862;2023-07-13T02:58:26;20.30;61.50
18047;DHT22;9148;51.454;13.862;2023-07-13T03:00:52;20.30;61.70
18047;DHT22;9148;51.454;13.862;2023-07-13T03:03:18;20.30;61.90
18047;DHT22;9148;51.454;13.862;2023-07-13T03:05:45;20.30;62.00
18047;DHT22;9148;51.454;13.862;2023-07-13T03:08:15;20.30;62.10
18047;DHT22;9148;51.454;13.862;2023-07-13T03:10:40;20.30;62.10
18047;DHT22;9148;51.454;13.862;2023-07-13T03:13:06;20.30;62.20
18047;DHT22;9148;51.454;13.862;2023-07-13T03:15:32;20.30;62.30
18047;DHT22;9148;51.454;13.862;2023-07-13T03:17:57;20.20;62.30
18047;DHT22;9148;51.454;13.862;2023-07-13T03:20:23;20.20;62.50
18047;DHT22;9148;51.454;13.862;2023-07-13T03:22:49;20.10;62.70
18047;DHT22;9148;51.454;13.862;2023-07-13T03:25:15;20.10;62.90
18047;DHT22;9148;51.454;13.862;2023-07-13T03:27:40;20.00;63.00
18047;DHT22;9148;51.454;13.862;2023-07-13T03:30:06;20.00;63.30
18047;DHT22;9148;51.454;13.862;2023-07-13T03:32:32;19.90;63.60
18047;DHT22;9148;51.454;13.862;2023-07-13T03:34:58;19.90;64.00
18047;DHT22;9148;51.454;13.862;2023-07-13T03:37:24;19.80;64.10
18047;DHT22;9148;51.454;13.862;2023-07-13T03:39:50;19.90;64.40
18047;DHT22;9148;51.454;13.862;2023-07-13T03:42:16;19.90;64.70
18047;DHT22;9148;51.454;13.862;2023-07-13T03:44:42;19.90;64.80
18047;DHT22;9148;51.454;13.862;2023-07-13T03:47:11;19.90;64.90
18047;DHT22;9148;51.454;13.862;2023-07-13T03:49:37;20.00;65.00
18047;DHT22;9148;51.454;13.862;2023-07-13T03:52:03;20.00;65.10
18047;DHT22;9148;51.454;13.862;2023-07-13T03:54:32;20.10;65.20
18047;DHT22;9148;51.454;13.862;2023-07-13T03:56:58;20.10;65.40
18047;DHT22;9148;51.454;13.862;2023-07-13T03:59:24;20.10;65.50
18047;DHT22;9148;51.454;13.862;2023-07-13T04:01:49;20.10;65.80
18047;DHT22;9148;51.454;13.862;2023-07-13T04:04:15;20.10;65.80
18047;DHT22;9148;51.454;13.862;2023-07-13T04:06:41;20.10;66.10
18047;DHT22;9148;51.454;13.862;2023-07-13T04:09:06;20.00;66.30
18047;DHT22;9148;51.454;13.862;2023-07-13T04:11:32;20.00;66.90
18047;DHT22;9148;51.454;13.862;2023-07-13T04:13:59;20.00;67.50
18047;DHT22;9148;51.454;13.862;2023-07-13T04:16:25;20.00;67.70
18047;DHT22;9148;51.454;13.862;2023-07-13T04:18:51;20.00;67.40
18047;DHT22;9148;51.454;13.862;2023-07-13T04:21:20;20.10;67.40
18047;DHT22;9148;51.454;13.862;2023-07-13T04:23:46;20.10;67.20
18047;DHT22;9148;51.454;13.862;2023-07-13T04:26:12;20.10;67.00
18047;DHT22;9148;51.454;13.862;2023-07-13T04:28:38;20.20;67.00
18047;DHT22;9148;51.454;13.862;2023-07-13T04:31:04;20.20;67.00
18047;DHT22;9148;51.454;13.862;2023-07-13T04:33:29;20.30;67.10
18047;DHT22;9148;51.454;13.862;2023-07-13T04:35:56;20.30;67.00
18047;DHT22;9148;51.454;13.862;2023-07-13T04:38:24;20.40;67.00
18047;DHT22;9148;51.454;13.862;2023-07-13T04:40:54;20.40;66.90
18047;DHT22;9148;51.454;13.862;2023-07-13T04:43:23;20.50;66.70
18047;DHT22;9148;51.454;13.862;2023-07-13T04:45:51;20.60;66.70
18047;DHT22;9148;51.454;13.862;2023-07-13T04:48:17;20.60;66.70
18047;DHT22;9148;51.454;13.862;2023-07-13T04:50:43;20.60;66.70
18047;DHT22;9148;51.454;13.862;2023-07-13T04:53:10;20.70;66.70
18047;DHT22;9148;51.454;13.862;2023-07-13T04:55:36;20.70;66.70
18047;DHT22;9148;51.454;13.862;2023-07-13T04:58:03;20.80;66.80
18047;DHT22;9148;51.454;13.862;2023-07-13T05:00:29;21.00;66.80
18047;DHT22;9148;51.454;13.862;2023-07-13T05:02:56;21.00;66.70
18047;DHT22;9148;51.454;13.862;2023-07-13T05:05:24;21.10;66.70
18047;DHT22;9148;51.454;13.862;2023-07-13T05:07:51;21.20;66.60
18047;DHT22;9148;51.454;13.862;2023-07-13T05:10:17;21.40;66.40
18047;DHT22;9148;51.454;13.862;2023-07-13T05:12:43;21.50;66.20
18047;DHT22;9148;51.454;13.862;2023-07-13T05:15:10;21.60;66.00
18047;DHT22;9148;51.454;13.862;2023-07-13T05:17:36;21.70;65.80
18047;DHT22;9148;51.454;13.862;2023-07-13T05:20:04;21.80;65.60
18047;DHT22;9148;51.454;13.862;2023-07-13T05:22:31;21.90;65.50
18047;DHT22;9148;51.454;13.862;2023-07-13T05:24:56;21.90;65.40
18047;DHT22;9148;51.454;13.862;2023-07-13T05:27:22;21.90;65.40
18047;DHT22;9148;51.454;13.862;2023-07-13T05:29:48;21.90;65.40
18047;DHT22;9148;51.454;13.862;2023-07-13T05:32:15;21.90;65.30
18047;DHT22;9148;51.454;13.862;2023-07-13T05:34:40;21.90;65.20
18047;DHT22;9148;51.454;13.862;2023-07-13T05:37:07;21.90;65.20
18047;DHT22;9148;51.454;13.862;2023-07-13T05:39:33;21.90;65.00
18047;DHT22;9148;51.454;13.862;2023-07-13T05:41:59;21.90;64.90
18047;DHT22;9148;51.454;13.862;2023-07-13T05:44:25;22.00;64.90
18047;DHT22;9148;51.454;13.862;2023-07-13T05:46:50;22.00;64.70
18047;DHT22;9148;51.454;13.862;2023-07-13T05:49:16;22.00;64.80
18047;DHT22;9148;51.454;13.862;2023-07-13T05:51:42;22.00;64.70
18047;DHT22;9148;51.454;13.862;2023-07-13T05:54:07;22.00;64.70
18047;DHT22;9148;51.454;13.862;2023-07-13T05:56:33;22.00;64.70
18047;DHT22;9148;51.454;13.862;2023-07-13T05:58:59;22.00;64.70
18047;DHT22;9148;51.454;13.862;2023-07-13T06:01:24;22.00;64.80
18047;DHT22;9148;51.454;13.862;2023-07-13T06:03:50;21.90;64.90
18047;DHT22;9148;51.454;13.862;2023-07-13T06:06:16;21.90;65.00
18047;DHT22;9148;51.454;13.862;2023-07-13T06:08:42;21.80;65.00
18047;DHT22;9148;51.454;13.862;2023-07-13T06:11:14;21.80;65.40
18047;DHT22;9148;51.454;13.862;2023-07-13T06:13:44;21.90;65.60
18047;DHT22;9148;51.454;13.862;2023-07-13T06:16:11;22.00;65.60
18047;DHT22;9148;51.454;13.862;2023-07-13T06:18:38;22.20;65.40
18047;DHT22;9148;51.454;13.862;2023-07-13T06:21:31;22.40;65.00
18047;DHT22;9148;51.454;13.862;2023-07-13T06:23:56;22.70;64.20
18047;DHT22;9148;51.454;13.862;2023-07-13T06:26:22;23.00;63.60
18047;DHT22;9148;51.454;13.862;2023-07-13T06:28:48;23.30;62.90
18047;DHT22;9148;51.454;13.862;2023-07-13T06:31:14;23.60;62.10
18047;DHT22;9148;51.454;13.862;2023-07-13T06:33:40;23.90;61.40
18047;DHT22;9148;51.454;13.862;2023-07-13T06:36:07;24.20;60.70
18047;DHT22;9148;51.454;13.862;2023-07-13T06:38:33;24.40;59.80
18047;DHT22;9148;51.454;13.862;2023-07-13T06:40:59;24.70;59.40
18047;DHT22;9148;51.454;13.862;2023-07-13T06:43:25;25.00;58.90
18047;DHT22;9148;51.454;13.862;2023-07-13T06:45:54;25.20;57.60
18047;DHT22;9148;51.454;13.862;2023-07-13T06:48:20;25.40;57.20
18047;DHT22;9148;51.454;13.862;2023-07-13T06:50:47;25.70;56.80
18047;DHT22;9148;51.454;13.862;2023-07-13T06:53:14;25.90;56.10
18047;DHT22;9148;51.454;13.862;2023-07-13T06:55:40;26.10;55.60
18047;DHT22;9148;51.454;13.862;2023-07-13T06:58:06;26.30;55.10
18047;DHT22;9148;51.454;13.862;2023-07-13T07:00:32;26.50;54.90
18047;DHT22;9148;51.454;13.862;2023-07-13T07:02:58;26.70;54.00
18047;DHT22;9148;51.454;13.862;2023-07-13T07:05:23;26.90;53.10
18047;DHT22;9148;51.454;13.862;2023-07-13T07:07:50;27.00;52.40
18047;DHT22;9148;51.454;13.862;2023-07-13T07:10:17;27.20;52.20
18047;DHT22;9148;51.454;13.862;2023-07-13T07:12:43;27.30;51.40
18047;DHT22;9148;51.454;13.862;2023-07-13T07:15:09;27.40;50.80
18047;DHT22;9148;51.454;13.862;2023-07-13T07:17:35;27.50;50.30
18047;DHT22;9148;51.454;13.862;2023-07-13T07:20:01;27.70;49.80
18047;DHT22;9148;51.454;13.862;2023-07-13T07:22:27;27.90;49.50
18047;DHT22;9148;51.454;13.862;2023-07-13T07:24:53;28.10;49.20
18047;DHT22;9148;51.454;13.862;2023-07-13T07:27:19;28.30;48.10
18047;DHT22;9148;51.454;13.862;2023-07-13T07:29:45;28.40;48.20
18047;DHT22;9148;51.454;13.862;2023-07-13T07:32:11;28.50;48.20
18047;DHT22;9148;51.454;13.862;2023-07-13T07:34:36;28.70;47.60
18047;DHT22;9148;51.454;13.862;2023-07-13T07:37:02;28.80;47.00
18047;DHT22;9148;51.454;13.862;2023-07-13T07:39:29;28.70;46.90
18047;DHT22;9148;51.454;13.862;2023-07-13T07:41:55;28.70;46.90
18047;DHT22;9148;51.454;13.862;2023-07-13T07:44:21;28.70;46.90
18047;DHT22;9148;51.454;13.862;2023-07-13T07:46:46;28.70;47.00
18047;DHT22;9148;51.454;13.862;2023-07-13T07:49:12;28.70;46.80
18047;DHT22;9148;51.454;13.862;2023-07-13T07:51:38;28.70;46.50
18047;DHT22;9148;51.454;13.862;2023-07-13T07:54:04;28.70;46.80
18047;DHT22;9148;51.454;13.862;2023-07-13T07:56:31;28.60;46.30
18047;DHT22;9148;51.454;13.862;2023-07-13T07:58:57;28.60;46.60
18047;DHT22;9148;51.454;13.862;2023-07-13T08:01:23;28.70;46.30
18047;DHT22;9148;51.454;13.862;2023-07-13T08:03:48;28.80;46.00
18047;DHT22;9148;51.454;13.862;2023-07-13T08:06:14;28.70;45.90
18047;DHT22;9148;51.454;13.862;2023-07-13T08:08:40;28.50;46.30
18047;DHT22;9148;51.454;13.862;2023-07-13T08:11:07;28.70;46.60
18047;DHT22;9148;51.454;13.862;2023-07-13T08:13:34;28.80;46.70
18047;DHT22;9148;51.454;13.862;2023-07-13T08:16:00;29.00;46.60
18047;DHT22;9148;51.454;13.862;2023-07-13T08:18:26;29.20;46.20
18047;DHT22;9148;51.454;13.862;2023-07-13T08:20:53;29.40;46.20
18047;DHT22;9148;51.454;13.862;2023-07-13T08:23:22;29.60;46.00
18047;DHT22;9148;51.454;13.862;2023-07-13T08:25:54;30.00;45.70
18047;DHT22;9148;51.454;13.862;2023-07-13T08:28:21;30.20;45.10
18047;DHT22;9148;51.454;13.862;2023-07-13T08:30:48;30.50;45.20
18047;DHT22;9148;51.454;13.862;2023-07-13T08:33:20;30.60;44.70
18047;DHT22;9148;51.454;13.862;2023-07-13T08:35:49;30.90;44.10
18047;DHT22;9148;51.454;13.862;2023-07-13T08:38:16;31.00;43.70
18047;DHT22;9148;51.454;13.862;2023-07-13T08:40:43;31.10;43.50
18047;DHT22;9148;51.454;13.862;2023-07-13T08:43:16;31.20;43.30
18047;DHT22;9148;51.454;13.862;2023-07-13T08:45:49;31.20;42.80
18047;DHT22;9148;51.454;13.862;2023-07-13T08:48:55;31.20;42.90
18047;DHT22;9148;51.454;13.862;2023-07-13T08:54:03;30.80;42.70
18047;DHT22;9148;51.454;13.862;2023-07-13T08:56:32;30.50;42.90
18047;DHT22;9148;51.454;13.862;2023-07-13T08:59:04;30.20;43.20
18047;DHT22;9148;51.454;13.862;2023-07-13T09:05:29;29.80;43.80
18047;DHT22;9148;51.454;13.862;2023-07-13T09:10:32;29.40;44.40
18047;DHT22;9148;51.454;13.862;2023-07-13T09:13:19;29.30;44.70
18047;DHT22;9148;51.454;13.862;2023-07-13T09:15:51;29.30;44.90
18047;DHT22;9148;51.454;13.862;2023-07-13T09:18:38;29.20;45.00
18047;DHT22;9148;51.454;13.862;2023-07-13T09:21:23;29.20;44.90
18047;DHT22;9148;51.454;13.862;2023-07-13T09:24:15;29.20;44.70
18047;DHT22;9148;51.454;13.862;2023-07-13T09:27:22;29.20;44.60
18047;DHT22;9148;51.454;13.862;2023-07-13T09:30:04;29.30;44.60
18047;DHT22;9148;51.454;13.862;2023-07-13T09:32:44;29.40;44.50
18047;DHT22;9148;51.454;13.862;2023-07-13T09:35:22;29.70;44.50
18047;DHT22;9148;51.454;13.862;2023-07-13T09:37:58;30.00;44.20
18047;DHT22;9148;51.454;13.862;2023-07-13T09:40:39;30.30;43.80
18047;DHT22;9148;51.454;13.862;2023-07-13T09:43:13;30.50;43.20
18047;DHT22;9148;51.454;13.862;2023-07-13T09:45:39;30.70;42.60
18047;DHT22;9148;51.454;13.862;2023-07-13T09:48:10;30.90;42.10
18047;DHT22;9148;51.454;13.862;2023-07-13T09:50:37;31.10;41.60
18047;DHT22;9148;51.454;13.862;2023-07-13T09:53:03;31.20;41.60
18047;DHT22;9148;51.454;13.862;2023-07-13T09:55:33;31.30;41.60
18047;DHT22;9148;51.454;13.862;2023-07-13T10:00:38;31.80;41.40
18047;DHT22;9148;51.454;13.862;2023-07-13T10:03:21;32.20;41.30
18047;DHT22;9148;51.454;13.862;2023-07-13T10:05:50;32.60;40.90
18047;DHT22;9148;51.454;13.862;2023-07-13T10:08:30;33.10;40.10
18047;DHT22;9148;51.454;13.862;2023-07-13T10:11:12;33.40;39.30
18047;DHT22;9148;51.454;13.862;2023-07-13T10:13:45;33.50;38.70
18047;DHT22;9148;51.454;13.862;2023-07-13T10:16:16;33.40;38.50
18047;DHT22;9148;51.454;13.862;2023-07-13T10:21:42;32.80;39.00
18047;DHT22;9148;51.454;13.862;2023-07-13T10:24:25;32.40;39.50
18047;DHT22;9148;51.454;13.862;2023-07-13T10:29:37;31.50;40.30
18047;DHT22;9148;51.454;13.862;2023-07-13T10:32:11;31.10;41.40
18047;DHT22;9148;51.454;13.862;2023-07-13T10:34:37;30.90;41.30
18047;DHT22;9148;51.454;13.862;2023-07-13T10:37:07;30.50;41.50
18047;DHT22;9148;51.454;13.862;2023-07-13T10:39:41;30.20;41.70
18047;DHT22;9148;51.454;13.862;2023-07-13T10:42:13;30.00;41.80
18047;DHT22;9148;51.454;13.862;2023-07-13T10:44:50;29.70;42.00
18047;DHT22;9148;51.454;13.862;2023-07-13T10:47:16;29.50;42.30
18047;DHT22;9148;51.454;13.862;2023-07-13T10:49:44;29.40;42.70
18047;DHT22;9148;51.454;13.862;2023-07-13T10:52:49;29.20;43.30
18047;DHT22;9148;51.454;13.862;2023-07-13T10:55:31;29.00;43.10
18047;DHT22;9148;51.454;13.862;2023-07-13T10:58:13;28.90;43.30
18047;DHT22;9148;51.454;13.862;2023-07-13T11:01:13;28.90;43.90
18047;DHT22;9148;51.454;13.862;2023-07-13T11:19:08;28.60;42.80
18047;DHT22;9148;51.454;13.862;2023-07-13T11:24:57;29.10;42.30
18047;DHT22;9148;51.454;13.862;2023-07-13T11:32:39;29.50;41.90
18047;DHT22;9148;51.454;13.862;2023-07-13T11:35:04;29.70;42.00
18047;DHT22;9148;51.454;13.862;2023-07-13T11:37:30;29.90;41.80
18047;DHT22;9148;51.454;13.862;2023-07-13T11:39:57;30.20;41.40
18047;DHT22;9148;51.454;13.862;2023-07-13T11:42:23;30.60;40.80
18047;DHT22;9148;51.454;13.862;2023-07-13T11:44:50;31.00;40.30
18047;DHT22;9148;51.454;13.862;2023-07-13T11:47:22;31.50;39.90
18047;DHT22;9148;51.454;13.862;2023-07-13T11:49:53;32.00;39.70
18047;DHT22;9148;51.454;13.862;2023-07-13T11:52:32;32.50;37.70
18047;DHT22;9148;51.454;13.862;2023-07-13T11:55:00;32.60;37.60
18047;DHT22;9148;51.454;13.862;2023-07-13T11:57:29;32.80;37.60
18047;DHT22;9148;51.454;13.862;2023-07-13T11:59:59;32.90;37.40
18047;DHT22;9148;51.454;13.862;2023-07-13T12:02:29;32.80;37.20
18047;DHT22;9148;51.454;13.862;2023-07-13T12:04:59;32.60;37.40
18047;DHT22;9148;51.454;13.862;2023-07-13T12:07:28;32.40;37.20
18047;DHT22;9148;51.454;13.862;2023-07-13T12:12:36;31.70;36.90
18047;DHT22;9148;51.454;13.862;2023-07-13T12:15:06;31.40;37.30
18047;DHT22;9148;51.454;13.862;2023-07-13T12:17:34;31.10;37.40
18047;DHT22;9148;51.454;13.862;2023-07-13T12:20:03;30.80;37.60
18047;DHT22;9148;51.454;13.862;2023-07-13T12:22:46;30.50;37.70
18047;DHT22;9148;51.454;13.862;2023-07-13T12:25:12;30.20;38.10
18047;DHT22;9148;51.454;13.862;2023-07-13T12:27:39;30.30;38.50
18047;DHT22;9148;51.454;13.862;2023-07-13T12:30:29;30.70;38.60
18047;DHT22;9148;51.454;13.862;2023-07-13T12:33:11;31.10;38.10
18047;DHT22;9148;51.454;13.862;2023-07-13T12:35:47;31.40;37.70
18047;DHT22;9148;51.454;13.862;2023-07-13T12:38:14;31.40;37.00
18047;DHT22;9148;51.454;13.862;2023-07-13T12:40:41;31.30;36.60
18047;DHT22;9148;51.454;13.862;2023-07-13T12:43:12;31.00;36.50
18047;DHT22;9148;51.454;13.862;2023-07-13T12:45:38;30.70;36.50
18047;DHT22;9148;51.454;13.862;2023-07-13T12:48:12;30.50;36.30
18047;DHT22;9148;51.454;13.862;2023-07-13T12:50:43;30.20;36.70
18047;DHT22;9148;51.454;13.862;2023-07-13T12:53:15;30.10;37.20
18047;DHT22;9148;51.454;13.862;2023-07-13T12:55:53;29.90;37.30
18047;DHT22;9148;51.454;13.862;2023-07-13T12:58:36;29.80;37.00
18047;DHT22;9148;51.454;13.862;2023-07-13T13:01:13;29.80;37.40
18047;DHT22;9148;51.454;13.862;2023-07-13T13:08:46;29.80;37.80
18047;DHT22;9148;51.454;13.862;2023-07-13T13:11:17;30.10;37.50
18047;DHT22;9148;51.454;13.862;2023-07-13T13:13:44;30.30;37.70
18047;DHT22;9148;51.454;13.862;2023-07-13T13:16:33;30.50;37.60
18047;DHT22;9148;51.454;13.862;2023-07-13T13:19:16;30.70;36.90
18047;DHT22;9148;51.454;13.862;2023-07-13T13:21:46;30.80;37.00
18047;DHT22;9148;51.454;13.862;2023-07-13T13:24:17;30.80;36.80
18047;DHT22;9148;51.454;13.862;2023-07-13T13:26:45;31.00;37.00
18047;DHT22;9148;51.454;13.862;2023-07-13T13:29:20;31.30;36.70
18047;DHT22;9148;51.454;13.862;2023-07-13T13:31:49;31.70;36.00
18047;DHT22;9148;51.454;13.862;2023-07-13T13:34:16;31.80;34.50
18047;DHT22;9148;51.454;13.862;2023-07-13T13:36:44;31.60;34.70
18047;DHT22;9148;51.454;13.862;2023-07-13T13:41:47;31.10;35.40
18047;DHT22;9148;51.454;13.862;2023-07-13T13:44:15;31.00;34.90
18047;DHT22;9148;51.454;13.862;2023-07-13T13:46:45;30.90;34.60
18047;DHT22;9148;51.454;13.862;2023-07-13T13:49:24;30.70;35.30
18047;DHT22;9148;51.454;13.862;2023-07-13T13:51:51;30.60;35.80
18047;DHT22;9148;51.454;13.862;2023-07-13T13:54:18;30.50;36.20
18047;DHT22;9148;51.454;13.862;2023-07-13T13:56:47;30.30;36.00
18047;DHT22;9148;51.454;13.862;2023-07-13T13:59:14;30.20;35.90
18047;DHT22;9148;51.454;13.862;2023-07-13T14:01:42;30.10;36.50
18047;DHT22;9148;51.454;13.862;2023-07-13T14:04:18;30.00;36.70
18047;DHT22;9148;51.454;13.862;2023-07-13T14:06:46;30.00;36.40
18047;DHT22;9148;51.454;13.862;2023-07-13T14:09:18;30.00;36.40
18047;DHT22;9148;51.454;13.862;2023-07-13T14:11:45;30.10;36.50
18047;DHT22;9148;51.454;13.862;2023-07-13T14:14:19;30.30;36.50
18047;DHT22;9148;51.454;13.862;2023-07-13T14:16:49;30.70;36.10
18047;DHT22;9148;51.454;13.862;2023-07-13T14:19:18;30.90;35.70
18047;DHT22;9148;51.454;13.862;2023-07-13T14:21:44;31.00;35.30
18047;DHT22;9148;51.454;13.862;2023-07-13T14:24:10;31.00;34.90
18047;DHT22;9148;51.454;13.862;2023-07-13T14:26:38;31.10;34.40
18047;DHT22;9148;51.454;13.862;2023-07-13T14:29:13;31.10;34.70
18047;DHT22;9148;51.454;13.862;2023-07-13T14:31:41;31.30;34.80
18047;DHT22;9148;51.454;13.862;2023-07-13T14:34:10;31.40;35.00
18047;DHT22;9148;51.454;13.862;2023-07-13T14:36:42;31.40;34.40
18047;DHT22;9148;51.454;13.862;2023-07-13T14:39:16;31.40;34.50
18047;DHT22;9148;51.454;13.862;2023-07-13T14:41:44;31.20;34.40
18047;DHT22;9148;51.454;13.862;2023-07-13T14:44:13;31.00;34.10
18047;DHT22;9148;51.454;13.862;2023-07-13T14:46:41;30.80;34.30
18047;DHT22;9148;51.454;13.862;2023-07-13T14:49:36;30.70;34.70
18047;DHT22;9148;51.454;13.862;2023-07-13T14:52:17;30.50;34.80
18047;DHT22;9148;51.454;13.862;2023-07-13T14:54:44;30.30;34.80
18047;DHT22;9148;51.454;13.862;2023-07-13T14:57:12;30.30;35.10
18047;DHT22;9148;51.454;13.862;2023-07-13T14:59:39;30.40;35.20
18047;DHT22;9148;51.454;13.862;2023-07-13T15:04:43;30.60;34.90
18047;DHT22;9148;51.454;13.862;2023-07-13T15:07:10;30.70;35.20
18047;DHT22;9148;51.454;13.862;2023-07-13T15:09:36;30.70;35.30
18047;DHT22;9148;51.454;13.862;2023-07-13T15:12:02;30.70;34.80
18047;DHT22;9148;51.454;13.862;2023-07-13T15:14:28;30.70;34.70
18047;DHT22;9148;51.454;13.862;2023-07-13T15:16:55;30.70;35.00
18047;DHT22;9148;51.454;13.862;2023-07-13T15:19:22;30.70;34.70
18047;DHT22;9148;51.454;13.862;2023-07-13T15:21:49;30.70;34.90
18047;DHT22;9148;51.454;13.862;2023-07-13T15:24:15;30.60;34.70
18047;DHT22;9148;51.454;13.862;2023-07-13T15:26:42;30.60;34.90
18047;DHT22;9148;51.454;13.862;2023-07-13T15:29:14;30.60;34.70
18047;DHT22;9148;51.454;13.862;2023-07-13T15:31:40;30.60;34.70
18047;DHT22;9148;51.454;13.862;2023-07-13T15:34:15;30.40;34.80
18047;DHT22;9148;51.454;13.862;2023-07-13T15:36:42;30.20;34.70
18047;DHT22;9148;51.454;13.862;2023-07-13T15:39:14;30.10;34.80
18047;DHT22;9148;51.454;13.862;2023-07-13T15:41:42;29.90;35.00
18047;DHT22;9148;51.454;13.862;2023-07-13T15:44:29;29.80;35.20
18047;DHT22;9148;51.454;13.862;2023-07-13T15:46:56;29.80;35.50
18047;DHT22;9148;51.454;13.862;2023-07-13T15:49:22;29.80;35.60
18047;DHT22;9148;51.454;13.862;2023-07-13T15:51:48;29.90;35.20
18047;DHT22;9148;51.454;13.862;2023-07-13T15:54:16;29.80;35.30
18047;DHT22;9148;51.454;13.862;2023-07-13T15:56:52;29.80;35.60
18047;DHT22;9148;51.454;13.862;2023-07-13T15:59:20;29.80;35.10
18047;DHT22;9148;51.454;13.862;2023-07-13T16:01:46;29.70;34.90
18047;DHT22;9148;51.454;13.862;2023-07-13T16:04:14;29.50;34.60
18047;DHT22;9148;51.454;13.862;2023-07-13T16:06:41;29.40;35.00
18047;DHT22;9148;51.454;13.862;2023-07-13T16:09:27;29.40;35.40
18047;DHT22;9148;51.454;13.862;2023-07-13T16:11:53;29.40;35.40
18047;DHT22;9148;51.454;13.862;2023-07-13T16:14:22;29.30;35.20
18047;DHT22;9148;51.454;13.862;2023-07-13T16:16:50;29.20;35.00
18047;DHT22;9148;51.454;13.862;2023-07-13T16:19:16;29.00;35.00
18047;DHT22;9148;51.454;13.862;2023-07-13T16:21:47;28.90;35.00
18047;DHT22;9148;51.454;13.862;2023-07-13T16:24:23;28.50;35.40
18047;DHT22;9148;51.454;13.862;2023-07-13T16:26:50;28.30;35.70
18047;DHT22;9148;51.454;13.862;2023-07-13T16:29:22;28.10;36.10
18047;DHT22;9148;51.454;13.862;2023-07-13T16:32:04;28.00;36.40
18047;DHT22;9148;51.454;13.862;2023-07-13T16:34:34;28.00;36.60
18047;DHT22;9148;51.454;13.862;2023-07-13T16:37:03;28.00;36.40
18047;DHT22;9148;51.454;13.862;2023-07-13T16:39:36;28.00;36.60